Time;durP1;ratioP1;P1;durP2;ratioP2;P2;SDS_P1;SDS_P2;PMS_P1;PMS_P2;Temp;Humidity;BMP_temperature;BMP_pressure;BME280_temperature;BME280_humidity;BME280_pressure;Samples;Min_cycle;Max_cycle;Signal;HPM_P1;HPM_P2
2021/01/06 00:02:18;;;;;;;9.23;6.82;;;;;;;;;;5114907;28;20223;-60
2021/01/06 00:04:44;;;;;;;9.25;5.70;;;;;;;;;;5118996;28;20204;-63
2021/01/06 00:07:11;;;;;;;7.63;6.75;;;;;;;;;;5134043;28;20208;-60
2021/01/06 00:09:38;;;;;;;6.50;5.72;;;;;;;;;;5133632;28;20207;-60
2021/01/06 00:12:06;;;;;;;6.72;5.35;;;;;;;;;;5131016;28;20219;-60
2021/01/06 00:14:33;;;;;;;6.90;6.15;;;;;;;;;;5117358;28;20203;-60
2021/01/06 00:16:59;;;;;;;6.63;5.60;;;;;;;;;;5114848;28;20254;-59
2021/01/06 00:19:27;;;;;;;7.32;5.57;;;;;;;;;;5113947;28;20244;-60
2021/01/06 00:21:54;;;;;;;6.03;5.07;;;;;;;;;;5113654;28;20241;-60
2021/01/06 00:24:20;;;;;;;6.32;5.20;;;;;;;;;;5117849;28;20195;-59
2021/01/06 00:26:47;;;;;;;7.80;5.45;;;;;;;;;;5117904;28;20263;-60
2021/01/06 00:29:14;;;;;;;7.35;5.20;;;;;;;;;;5117521;28;20769;-60
2021/01/06 00:31:41;;;;;;;5.70;5.10;;;;;;;;;;5117888;28;20203;-60
2021/01/06 00:34:08;;;;;;;4.60;4.20;;;;;;;;;;5117469;28;20203;-59
2021/01/06 00:36:36;;;;;;;5.68;5.05;;;;;;;;;;5117882;28;20199;-60
2021/01/06 00:39:04;;;;;;;5.45;4.75;;;;;;;;;;5117690;28;20195;-60
2021/01/06 00:41:32;;;;;;;8.20;5.63;;;;;;;;;;5117181;28;20203;-60
2021/01/06 00:43:59;;;;;;;6.32;4.90;;;;;;;;;;5117188;28;20199;-59
2021/01/06 00:46:28;;;;;;;7.47;4.88;;;;;;;;;;5117658;28;20280;-60
2021/01/06 00:48:55;;;;;;;7.82;4.55;;;;;;;;;;5117174;28;20220;-61
2021/01/06 00:51:22;;;;;;;5.20;4.28;;;;;;;;;;5117454;28;20215;-60
2021/01/06 00:53:49;;;;;;;7.13;4.72;;;;;;;;;;5117333;28;20223;-61
2021/01/06 00:56:16;;;;;;;5.90;4.53;;;;;;;;;;5117523;28;20252;-60
2021/01/06 00:58:43;;;;;;;5.30;4.18;;;;;;;;;;5117124;28;20666;-61
2021/01/06 01:01:10;;;;;;;4.88;3.70;;;;;;;;;;5117076;28;20200;-60
2021/01/06 01:03:36;;;;;;;6.22;4.88;;;;;;;;;;5117235;28;20223;-59
2021/01/06 01:06:03;;;;;;;5.32;4.63;;;;;;;;;;5116863;28;20264;-60
2021/01/06 01:08:30;;;;;;;5.68;4.43;;;;;;;;;;5117150;28;20227;-61
2021/01/06 01:10:57;;;;;;;4.47;4.00;;;;;;;;;;5116950;28;20579;-60
2021/01/06 01:13:25;;;;;;;8.02;4.65;;;;;;;;;;5117165;28;20216;-59
2021/01/06 01:15:53;;;;;;;5.22;4.20;;;;;;;;;;5117186;28;20199;-60
2021/01/06 01:18:20;;;;;;;4.97;4.25;;;;;;;;;;5117104;28;20244;-61
2021/01/06 01:20:48;;;;;;;6.03;4.47;;;;;;;;;;5117886;28;20225;-60
2021/01/06 01:23:16;;;;;;;7.85;4.38;;;;;;;;;;5119243;28;20216;-59
2021/01/06 01:25:43;;;;;;;4.57;4.03;;;;;;;;;;5118145;28;20286;-60
2021/01/06 01:28:11;;;;;;;5.65;4.18;;;;;;;;;;5117525;28;20623;-60
2021/01/06 01:30:38;;;;;;;5.93;4.57;;;;;;;;;;5117066;28;20671;-60
2021/01/06 01:33:05;;;;;;;7.63;4.80;;;;;;;;;;5116822;28;20215;-60
2021/01/06 01:35:32;;;;;;;7.03;4.05;;;;;;;;;;5116827;28;20200;-60
2021/01/06 01:38:00;;;;;;;4.70;4.22;;;;;;;;;;5116838;28;20203;-60
2021/01/06 01:40:28;;;;;;;6.53;4.22;;;;;;;;;;5116912;28;20199;-59
2021/01/06 01:42:56;;;;;;;5.63;4.28;;;;;;;;;;5116831;28;20224;-60
2021/01/06 01:45:26;;;;;;;5.18;4.30;;;;;;;;;;5116752;28;20199;-60
2021/01/06 01:47:56;;;;;;;7.10;4.00;;;;;;;;;;5116815;28;20303;-60
2021/01/06 01:50:23;;;;;;;6.30;4.20;;;;;;;;;;5116675;28;20190;-60
2021/01/06 01:52:53;;;;;;;4.57;4.00;;;;;;;;;;5116393;28;20568;-59
2021/01/06 01:55:20;;;;;;;4.75;3.85;;;;;;;;;;5123393;28;20196;-60
2021/01/06 01:57:49;;;;;;;6.30;4.00;;;;;;;;;;5121285;28;20739;-60
2021/01/06 02:00:18;;;;;;;5.03;3.65;;;;;;;;;;5116899;28;20203;-59
2021/01/06 02:02:51;;;;;;;3.40;3.10;;;;;;;;;;5116347;28;20215;-59
2021/01/06 02:05:19;;;;;;;5.53;4.43;;;;;;;;;;5116178;28;20256;-59
2021/01/06 02:07:49;;;;;;;5.30;4.07;;;;;;;;;;5116266;28;20207;-60
2021/01/06 02:10:17;;;;;;;5.60;4.28;;;;;;;;;;5116065;28;20249;-60
2021/01/06 02:12:46;;;;;;;4.75;3.30;;;;;;;;;;5115851;28;20223;-60
2021/01/06 02:15:18;;;;;;;5.35;3.97;;;;;;;;;;5116481;28;20541;-59
2021/01/06 02:17:45;;;;;;;3.80;3.33;;;;;;;;;;5116428;28;20188;-59
2021/01/06 02:20:16;;;;;;;4.35;3.30;;;;;;;;;;5116338;28;20611;-59
2021/01/06 02:22:45;;;;;;;4.72;3.30;;;;;;;;;;5116605;28;20219;-59
2021/01/06 02:25:12;;;;;;;5.40;3.78;;;;;;;;;;5116304;28;20664;-59
2021/01/06 02:27:39;;;;;;;5.40;4.20;;;;;;;;;;5116914;28;20212;-59
2021/01/06 02:30:07;;;;;;;5.18;3.85;;;;;;;;;;5116397;28;20204;-60
2021/01/06 02:32:34;;;;;;;4.13;3.40;;;;;;;;;;5118464;28;20269;-60
2021/01/06 02:35:00;;;;;;;5.57;3.38;;;;;;;;;;5116714;28;20249;-60
2021/01/06 02:37:27;;;;;;;6.43;3.95;;;;;;;;;;5115771;28;20196;-60
2021/01/06 02:39:55;;;;;;;5.57;3.63;;;;;;;;;;5115526;28;20261;-59
2021/01/06 02:42:22;;;;;;;5.05;3.80;;;;;;;;;;5115482;28;20284;-60
2021/01/06 02:44:49;;;;;;;4.22;3.38;;;;;;;;;;5115441;28;20204;-59
2021/01/06 02:47:16;;;;;;;4.15;3.22;;;;;;;;;;5114291;28;20206;-60
2021/01/06 02:49:44;;;;;;;6.10;3.58;;;;;;;;;;5115236;28;20219;-60
2021/01/06 02:52:14;;;;;;;3.78;3.33;;;;;;;;;;5115182;28;20272;-60
2021/01/06 02:54:43;;;;;;;5.13;3.33;;;;;;;;;;5115295;28;20261;-60
2021/01/06 02:57:11;;;;;;;5.35;3.20;;;;;;;;;;5114833;28;20207;-60
2021/01/06 02:59:39;;;;;;;4.53;3.80;;;;;;;;;;5115285;28;20198;-60
2021/01/06 03:02:07;;;;;;;4.95;3.85;;;;;;;;;;5116475;28;20223;-60
2021/01/06 03:04:35;;;;;;;5.70;3.70;;;;;;;;;;5115202;28;20297;-60
2021/01/06 03:07:04;;;;;;;3.53;3.22;;;;;;;;;;5114826;28;20211;-60
2021/01/06 03:09:32;;;;;;;5.60;3.55;;;;;;;;;;5115111;28;20305;-60
2021/01/06 03:12:00;;;;;;;6.10;3.10;;;;;;;;;;5115060;28;20231;-59
2021/01/06 03:14:28;;;;;;;3.45;3.15;;;;;;;;;;5115215;28;20203;-60
2021/01/06 03:16:55;;;;;;;5.70;3.30;;;;;;;;;;5114836;28;20199;-59
2021/01/06 03:19:23;;;;;;;5.55;3.85;;;;;;;;;;5114629;28;20698;-60
2021/01/06 03:21:50;;;;;;;5.93;3.40;;;;;;;;;;5114493;28;20231;-59
2021/01/06 03:24:18;;;;;;;3.92;3.20;;;;;;;;;;5114919;28;20199;-59
2021/01/06 03:26:46;;;;;;;5.25;3.15;;;;;;;;;;5114774;28;20204;-59
2021/01/06 03:29:13;;;;;;;4.07;2.95;;;;;;;;;;5114654;28;20212;-59
2021/01/06 03:31:42;;;;;;;4.82;3.35;;;;;;;;;;5115413;28;20196;-59
2021/01/06 03:34:14;;;;;;;4.75;3.10;;;;;;;;;;5139388;28;20199;-59
2021/01/06 03:36:44;;;;;;;4.00;3.50;;;;;;;;;;5138325;28;20181;-62
2021/01/06 03:39:14;;;;;;;4.00;2.80;;;;;;;;;;5133089;28;20219;-60
2021/01/06 03:41:41;;;;;;;4.40;2.85;;;;;;;;;;5114986;28;20640;-59
2021/01/06 03:44:09;;;;;;;4.60;3.30;;;;;;;;;;5114140;28;20582;-59
2021/01/06 03:46:40;;;;;;;4.68;3.25;;;;;;;;;;5113951;28;20195;-59
2021/01/06 03:49:13;;;;;;;5.80;3.65;;;;;;;;;;5115609;28;20210;-60
2021/01/06 03:51:41;;;;;;;4.50;3.60;;;;;;;;;;5121865;28;20231;-59
2021/01/06 03:54:14;;;;;;;5.85;4.15;;;;;;;;;;5114824;28;20224;-59
2021/01/06 03:56:41;;;;;;;5.75;3.60;;;;;;;;;;5114315;28;20194;-59
2021/01/06 03:59:12;;;;;;;5.18;3.70;;;;;;;;;;5113825;28;20249;-59
2021/01/06 04:01:47;;;;;;;4.18;3.78;;;;;;;;;;5113876;28;20640;-59
2021/01/06 04:07:35;;;;;;;4.43;4.00;;;;;;;;;;5112349;27;20537;-58
2021/01/06 04:10:03;;;;;;;6.57;3.38;;;;;;;;;;5111250;28;20200;-59
2021/01/06 04:12:30;;;;;;;4.57;4.15;;;;;;;;;;5111621;28;20238;-59
2021/01/06 04:14:57;;;;;;;5.63;4.10;;;;;;;;;;5112031;28;20569;-59
2021/01/06 04:17:44;;;;;;;6.30;3.78;;;;;;;;;;5114215;28;20196;-59
2021/01/06 04:20:29;;;;;;;5.32;3.88;;;;;;;;;;5114350;28;20180;-60
2021/01/06 04:22:57;;;;;;;5.90;4.07;;;;;;;;;;5117046;28;20219;-60
2021/01/06 04:25:25;;;;;;;7.25;4.28;;;;;;;;;;5113056;28;20212;-60
2021/01/06 04:27:53;;;;;;;3.55;3.20;;;;;;;;;;5112894;28;20200;-60
2021/01/06 04:30:34;;;;;;;5.70;4.60;;;;;;;;;;5113776;28;20320;-60
2021/01/06 04:33:02;;;;;;;7.13;4.65;;;;;;;;;;5111926;28;20223;-59
2021/01/06 04:35:30;;;;;;;6.57;4.40;;;;;;;;;;5112579;28;20601;-60
2021/01/06 04:37:59;;;;;;;6.78;4.00;;;;;;;;;;5111091;28;20204;-59
2021/01/06 04:40:27;;;;;;;5.82;4.50;;;;;;;;;;5110600;28;20269;-60
2021/01/06 04:42:59;;;;;;;6.40;4.10;;;;;;;;;;5110872;28;20215;-60
2021/01/06 04:45:31;;;;;;;6.82;4.95;;;;;;;;;;5111210;28;20184;-60
2021/01/06 04:48:16;;;;;;;6.32;4.53;;;;;;;;;;5111571;28;20277;-60
2021/01/06 04:51:01;;;;;;;4.57;4.18;;;;;;;;;;5112081;28;20188;-60
2021/01/06 04:53:35;;;;;;;5.20;4.10;;;;;;;;;;5112526;28;20306;-59
2021/01/06 04:56:21;;;;;;;7.05;4.57;;;;;;;;;;5113107;28;20187;-60
2021/01/06 04:58:50;;;;;;;5.25;4.30;;;;;;;;;;5112836;28;20624;-58
2021/01/06 05:01:30;;;;;;;5.88;4.38;;;;;;;;;;5112198;28;20203;-59
2021/01/06 05:04:15;;;;;;;7.57;4.05;;;;;;;;;;5115028;28;20188;-60
2021/01/06 05:06:47;;;;;;;4.88;3.95;;;;;;;;;;5113104;28;20601;-60
2021/01/06 05:09:21;;;;;;;5.40;4.75;;;;;;;;;;5111334;28;20188;-59
2021/01/06 05:11:54;;;;;;;9.65;4.93;;;;;;;;;;5110243;28;20231;-59
2021/01/06 05:14:24;;;;;;;6.05;4.80;;;;;;;;;;5109770;28;20597;-60
2021/01/06 05:16:52;;;;;;;4.78;4.28;;;;;;;;;;5107984;28;20203;-59
2021/01/06 05:19:21;;;;;;;7.88;5.35;;;;;;;;;;5095878;28;20200;-60
2021/01/06 05:21:48;;;;;;;6.63;5.10;;;;;;;;;;5096048;28;20889;-60
2021/01/06 05:24:19;;;;;;;7.15;5.10;;;;;;;;;;5096080;28;20215;-59
2021/01/06 05:26:47;;;;;;;9.27;5.70;;;;;;;;;;5096242;28;20209;-59
2021/01/06 05:29:20;;;;;;;5.70;5.00;;;;;;;;;;5095969;28;20200;-59
2021/01/06 05:31:47;;;;;;;5.47;4.65;;;;;;;;;;5096309;28;20261;-59
2021/01/06 05:34:14;;;;;;;8.07;4.97;;;;;;;;;;5096616;28;20228;-59
2021/01/06 05:36:41;;;;;;;8.48;5.00;;;;;;;;;;5095849;28;20672;-60
2021/01/06 05:39:15;;;;;;;8.18;5.13;;;;;;;;;;5095838;28;20200;-59
2021/01/06 05:41:42;;;;;;;6.57;5.82;;;;;;;;;;5096177;28;20181;-59
2021/01/06 05:44:10;;;;;;;6.30;5.53;;;;;;;;;;5096179;28;20204;-59
2021/01/06 05:46:38;;;;;;;6.53;5.53;;;;;;;;;;5096193;28;20216;-59
2021/01/06 05:49:12;;;;;;;9.48;6.07;;;;;;;;;;5095896;28;20295;-60
2021/01/06 05:51:42;;;;;;;6.80;4.78;;;;;;;;;;5096223;28;20189;-59
2021/01/06 05:54:15;;;;;;;7.15;5.68;;;;;;;;;;5097062;28;20233;-60
2021/01/06 05:56:56;;;;;;;12.43;6.70;;;;;;;;;;5096426;28;20188;-60
2021/01/06 05:59:35;;;;;;;6.85;5.47;;;;;;;;;;5096039;28;20196;-59
2021/01/06 06:02:06;;;;;;;8.50;6.68;;;;;;;;;;5095744;28;20315;-60
2021/01/06 06:04:38;;;;;;;8.82;6.50;;;;;;;;;;5095857;28;20587;-60
2021/01/06 06:07:16;;;;;;;10.30;6.50;;;;;;;;;;5095550;28;20228;-59
2021/01/06 06:10:03;;;;;;;7.35;6.65;;;;;;;;;;5096317;28;20620;-60
2021/01/06 06:12:45;;;;;;;7.00;5.85;;;;;;;;;;5095998;28;20274;-59
2021/01/06 06:15:32;;;;;;;10.45;6.30;;;;;;;;;;5096588;28;20209;-59
2021/01/06 06:18:10;;;;;;;9.68;6.57;;;;;;;;;;5090768;28;20201;-60
2021/01/06 06:20:41;;;;;;;7.97;5.95;;;;;;;;;;5097131;28;20558;-59
2021/01/06 06:23:26;;;;;;;9.82;6.68;;;;;;;;;;5100682;28;20235;-58
2021/01/06 06:26:08;;;;;;;7.75;5.85;;;;;;;;;;5095942;28;20273;-59
2021/01/06 06:28:39;;;;;;;9.70;6.22;;;;;;;;;;5095379;28;20600;-58
2021/01/06 06:31:16;;;;;;;9.40;6.47;;;;;;;;;;5095134;28;20199;-59
2021/01/06 06:33:43;;;;;;;10.00;7.43;;;;;;;;;;5095227;28;20220;-59
2021/01/06 06:36:11;;;;;;;9.35;6.38;;;;;;;;;;5094670;28;20604;-60
2021/01/06 06:38:39;;;;;;;10.52;6.38;;;;;;;;;;5094977;28;20200;-59
2021/01/06 06:41:06;;;;;;;9.18;6.20;;;;;;;;;;5095057;28;20209;-59
2021/01/06 06:43:39;;;;;;;7.05;5.95;;;;;;;;;;5094872;28;20224;-60
2021/01/06 06:46:26;;;;;;;10.15;6.72;;;;;;;;;;5095216;28;20595;-59
2021/01/06 06:49:12;;;;;;;12.23;7.70;;;;;;;;;;5090908;28;20256;-60
2021/01/06 06:51:41;;;;;;;9.10;7.22;;;;;;;;;;5095397;28;20200;-59
2021/01/06 06:54:12;;;;;;;10.05;7.00;;;;;;;;;;5095046;28;20205;-60
2021/01/06 06:56:42;;;;;;;7.75;5.97;;;;;;;;;;5094791;28;20215;-60
2021/01/06 06:59:11;;;;;;;9.63;6.65;;;;;;;;;;5094842;28;20242;-60
2021/01/06 07:01:40;;;;;;;9.68;7.28;;;;;;;;;;5094526;28;20201;-60
2021/01/06 07:04:08;;;;;;;15.48;7.40;;;;;;;;;;5094429;28;20196;-60
2021/01/06 07:06:35;;;;;;;8.40;7.50;;;;;;;;;;5093837;28;20216;-59
2021/01/06 07:09:04;;;;;;;10.18;7.18;;;;;;;;;;5094029;28;20715;-59
2021/01/06 07:11:36;;;;;;;8.98;6.38;;;;;;;;;;5094395;28;20207;-59
2021/01/06 07:14:06;;;;;;;11.95;5.97;;;;;;;;;;5094159;28;20200;-59
2021/01/06 07:16:35;;;;;;;9.15;6.80;;;;;;;;;;5094195;28;20204;-60
2021/01/06 07:19:22;;;;;;;7.38;6.00;;;;;;;;;;5095109;28;20201;-60
2021/01/06 07:21:51;;;;;;;9.75;7.60;;;;;;;;;;5091049;28;20220;-59
2021/01/06 07:24:19;;;;;;;9.68;7.43;;;;;;;;;;5096124;28;20673;-60
2021/01/06 07:26:48;;;;;;;9.02;6.88;;;;;;;;;;5098378;28;20220;-60
2021/01/06 07:29:16;;;;;;;8.75;6.30;;;;;;;;;;5102426;28;20208;-60
2021/01/06 07:31:50;;;;;;;7.90;5.97;;;;;;;;;;5102767;28;20207;-60
2021/01/06 07:34:21;;;;;;;8.88;6.70;;;;;;;;;;5102307;28;20556;-59
2021/01/06 07:36:50;;;;;;;12.15;6.90;;;;;;;;;;5101020;28;20234;-60
2021/01/06 07:39:21;;;;;;;8.90;6.60;;;;;;;;;;5102308;28;20211;-60
2021/01/06 07:41:49;;;;;;;10.98;6.70;;;;;;;;;;5104207;28;20675;-58
2021/01/06 07:44:22;;;;;;;9.75;7.20;;;;;;;;;;5102701;28;20207;-59
2021/01/06 07:46:51;;;;;;;9.68;7.35;;;;;;;;;;5110717;28;20204;-58
2021/01/06 07:49:38;;;;;;;10.00;7.55;;;;;;;;;;5108921;28;20211;-59
2021/01/06 07:52:07;;;;;;;9.38;6.40;;;;;;;;;;5108473;28;20220;-59
2021/01/06 07:54:37;;;;;;;9.27;7.40;;;;;;;;;;5107582;28;20204;-60
2021/01/06 07:57:07;;;;;;;10.30;7.68;;;;;;;;;;5097798;28;20201;-60
2021/01/06 07:59:37;;;;;;;13.10;8.43;;;;;;;;;;5095713;28;20208;-58
2021/01/06 08:02:09;;;;;;;10.05;8.10;;;;;;;;;;5094236;28;20224;-57
2021/01/06 08:04:38;;;;;;;10.50;7.22;;;;;;;;;;5094958;28;20192;-58
2021/01/06 08:07:07;;;;;;;12.38;8.38;;;;;;;;;;5094325;28;20337;-60
2021/01/06 08:09:35;;;;;;;11.65;8.43;;;;;;;;;;5094948;28;20212;-59
2021/01/06 08:12:11;;;;;;;14.52;10.23;;;;;;;;;;5094628;28;20224;-58
2021/01/06 08:14:38;;;;;;;14.18;8.88;;;;;;;;;;5095121;28;20184;-59
2021/01/06 08:17:11;;;;;;;11.77;9.15;;;;;;;;;;5094182;28;20200;-58
2021/01/06 08:19:41;;;;;;;19.85;10.05;;;;;;;;;;5093770;28;20586;-59
2021/01/06 08:22:16;;;;;;;13.90;10.32;;;;;;;;;;5093736;28;20712;-59
2021/01/06 08:24:45;;;;;;;17.05;10.77;;;;;;;;;;5094211;28;20584;-58
2021/01/06 08:27:15;;;;;;;18.17;12.30;;;;;;;;;;5094370;28;20220;-59
2021/01/06 08:29:41;;;;;;;15.27;11.15;;;;;;;;;;5094559;28;20292;-55
2021/01/06 08:32:23;;;;;;;14.30;10.60;;;;;;;;;;5095965;28;20216;-59
2021/01/06 08:34:56;;;;;;;17.83;11.98;;;;;;;;;;5098714;28;20249;-58
2021/01/06 08:37:23;;;;;;;16.13;11.90;;;;;;;;;;5097325;28;20203;-59
2021/01/06 08:39:52;;;;;;;13.45;10.57;;;;;;;;;;5096068;28;20205;-59
2021/01/06 08:42:22;;;;;;;18.02;12.95;;;;;;;;;;5096119;28;20703;-59
2021/01/06 08:44:56;;;;;;;16.42;10.23;;;;;;;;;;5096023;28;20207;-60
2021/01/06 08:47:33;;;;;;;16.85;12.20;;;;;;;;;;5098861;28;20209;-60
2021/01/06 08:50:14;;;;;;;15.77;11.55;;;;;;;;;;5102688;28;20204;-60
2021/01/06 08:52:41;;;;;;;16.20;11.63;;;;;;;;;;5085887;28;20227;-58
2021/01/06 08:55:19;;;;;;;17.05;11.55;;;;;;;;;;5100507;28;20269;-59
2021/01/06 08:57:56;;;;;;;17.50;11.18;;;;;;;;;;5099958;28;20184;-59
2021/01/06 09:00:24;;;;;;;17.50;13.18;;;;;;;;;;5099431;28;20184;-57
2021/01/06 09:02:53;;;;;;;14.93;10.23;;;;;;;;;;5098578;28;20223;-59
2021/01/06 09:05:50;;;;;;;17.88;12.55;;;;;;;;;;5098534;28;20214;-58
2021/01/06 09:08:17;;;;;;;17.45;11.93;;;;;;;;;;5035908;28;20210;-58
2021/01/06 09:10:50;;;;;;;16.50;12.45;;;;;;;;;;5082893;28;20207;-60
2021/01/06 09:13:20;;;;;;;20.85;14.48;;;;;;;;;;5096788;28;20220;-60
2021/01/06 09:15:48;;;;;;;17.48;12.45;;;;;;;;;;5098339;28;20204;-59
2021/01/06 09:18:17;;;;;;;20.13;13.30;;;;;;;;;;5097323;28;20578;-60
2021/01/06 09:20:57;;;;;;;24.92;17.00;;;;;;;;;;5097586;28;20201;-60
2021/01/06 09:23:23;;;;;;;26.08;16.75;;;;;;;;;;5097058;28;20224;-59
2021/01/06 09:25:50;;;;;;;25.73;15.98;;;;;;;;;;5097145;28;20204;-60
2021/01/06 09:28:19;;;;;;;19.50;12.85;;;;;;;;;;5097200;28;20208;-59
2021/01/06 09:30:46;;;;;;;14.73;12.57;;;;;;;;;;5096609;28;20200;-61
2021/01/06 09:33:14;;;;;;;16.02;12.05;;;;;;;;;;5096634;28;20567;-59
2021/01/06 09:35:41;;;;;;;14.77;11.85;;;;;;;;;;5096593;28;20211;-60
2021/01/06 09:38:09;;;;;;;15.80;10.98;;;;;;;;;;5096267;28;20204;-61
2021/01/06 09:40:37;;;;;;;16.75;12.60;;;;;;;;;;5095777;28;20291;-60
2021/01/06 09:43:06;;;;;;;14.52;10.05;;;;;;;;;;5095460;28;20220;-60
2021/01/06 09:45:34;;;;;;;19.35;13.10;;;;;;;;;;5096152;28;20299;-61
2021/01/06 09:48:03;;;;;;;16.92;11.13;;;;;;;;;;5095930;28;20223;-60
2021/01/06 09:50:33;;;;;;;17.75;11.05;;;;;;;;;;5096191;28;20212;-58
2021/01/06 09:53:01;;;;;;;15.65;11.98;;;;;;;;;;5096933;28;20227;-59
2021/01/06 09:55:28;;;;;;;18.35;13.70;;;;;;;;;;5096311;28;20664;-59
2021/01/06 09:58:00;;;;;;;13.15;9.75;;;;;;;;;;5096271;28;20196;-59
2021/01/06 10:00:31;;;;;;;18.98;12.57;;;;;;;;;;5095480;28;20437;-58
2021/01/06 10:02:59;;;;;;;15.68;11.75;;;;;;;;;;5095966;28;20652;-59
2021/01/06 10:05:42;;;;;;;13.75;10.88;;;;;;;;;;5097066;28;20212;-59
2021/01/06 10:08:17;;;;;;;14.43;10.40;;;;;;;;;;5099437;28;20282;-57
2021/01/06 10:10:43;;;;;;;16.45;11.45;;;;;;;;;;5099413;28;20188;-58
2021/01/06 10:13:14;;;;;;;15.57;12.13;;;;;;;;;;5103915;28;20220;-59
2021/01/06 10:15:55;;;;;;;17.42;11.13;;;;;;;;;;5096475;28;20223;-59
2021/01/06 10:18:31;;;;;;;13.70;10.15;;;;;;;;;;5096343;28;20192;-59
2021/01/06 10:20:59;;;;;;;16.48;11.25;;;;;;;;;;5095776;28;20636;-59
2021/01/06 10:23:38;;;;;;;16.15;11.18;;;;;;;;;;5095566;28;20220;-59
2021/01/06 10:26:15;;;;;;;13.88;10.60;;;;;;;;;;5095496;28;20603;-60
2021/01/06 10:28:43;;;;;;;17.95;11.77;;;;;;;;;;5095552;28;20432;-59
2021/01/06 10:31:12;;;;;;;15.60;10.73;;;;;;;;;;5095758;28;20596;-59
2021/01/06 10:34:01;;;;;;;14.20;9.63;;;;;;;;;;5094989;28;20278;-61
2021/01/06 10:36:45;;;;;;;13.80;9.38;;;;;;;;;;5095204;28;20226;-61
2021/01/06 10:39:20;;;;;;;13.93;11.02;;;;;;;;;;5085240;28;20200;-60
2021/01/06 10:41:58;;;;;;;13.38;9.20;;;;;;;;;;5095184;28;20191;-60
2021/01/06 10:44:28;;;;;;;12.02;9.40;;;;;;;;;;5094994;28;20183;-59
2021/01/06 10:46:56;;;;;;;14.98;10.48;;;;;;;;;;5094971;28;20228;-61
2021/01/06 10:49:46;;;;;;;12.07;9.85;;;;;;;;;;5095423;28;20578;-60
2021/01/06 10:52:31;;;;;;;14.88;10.38;;;;;;;;;;5094941;28;20269;-59
2021/01/06 10:55:20;;;;;;;12.48;10.23;;;;;;;;;;5094565;28;20176;-59
2021/01/06 10:57:49;;;;;;;12.55;9.68;;;;;;;;;;5094396;28;20637;-59
2021/01/06 11:00:17;;;;;;;11.10;9.18;;;;;;;;;;5094181;28;20697;-60
2021/01/06 11:02:52;;;;;;;13.48;10.10;;;;;;;;;;5094316;28;20224;-59
2021/01/06 11:05:21;;;;;;;12.00;8.50;;;;;;;;;;5094802;28;20192;-60
2021/01/06 11:08:00;;;;;;;13.68;10.27;;;;;;;;;;5094118;28;20204;-60
2021/01/06 11:10:48;;;;;;;13.15;9.30;;;;;;;;;;5094841;28;20188;-61
2021/01/06 11:13:19;;;;;;;14.13;10.35;;;;;;;;;;5093827;28;20216;-58
2021/01/06 11:16:00;;;;;;;15.00;11.13;;;;;;;;;;5093770;28;20192;-60
2021/01/06 11:18:48;;;;;;;11.65;9.30;;;;;;;;;;5094774;28;20600;-61
2021/01/06 11:21:19;;;;;;;12.38;10.07;;;;;;;;;;5089792;28;20279;-60
2021/01/06 11:23:50;;;;;;;12.93;10.70;;;;;;;;;;5094599;28;20246;-59
2021/01/06 11:26:50;;;;;;;11.02;7.90;;;;;;;;;;5094769;28;20220;-59
2021/01/06 11:29:32;;;;;;;11.02;8.45;;;;;;;;;;5095451;28;20185;-59
2021/01/06 11:32:20;;;;;;;12.85;9.82;;;;;;;;;;5082737;28;20593;-59
2021/01/06 11:34:49;;;;;;;11.85;8.90;;;;;;;;;;5069643;28;20208;-58
2021/01/06 11:37:28;;;;;;;12.95;8.98;;;;;;;;;;5094596;28;20206;-57
2021/01/06 11:39:55;;;;;;;10.18;8.63;;;;;;;;;;5094115;28;20715;-62
2021/01/06 11:42:22;;;;;;;12.70;9.27;;;;;;;;;;5094689;28;20231;-59
2021/01/06 11:45:04;;;;;;;12.05;9.30;;;;;;;;;;5094608;28;20200;-59
2021/01/06 11:47:32;;;;;;;9.98;8.35;;;;;;;;;;5094288;28;20206;-59
2021/01/06 11:50:05;;;;;;;11.50;7.95;;;;;;;;;;5094439;28;20204;-57
2021/01/06 11:52:37;;;;;;;10.38;8.40;;;;;;;;;;5094878;28;20220;-58
2021/01/06 11:55:15;;;;;;;12.82;8.30;;;;;;;;;;5094044;28;20204;-57
2021/01/06 11:57:49;;;;;;;10.93;7.65;;;;;;;;;;5094366;28;20181;-59
2021/01/06 12:00:23;;;;;;;9.90;8.55;;;;;;;;;;5093878;28;20199;-59
2021/01/06 12:02:58;;;;;;;11.32;8.15;;;;;;;;;;5094415;28;20544;-59
2021/01/06 12:05:31;;;;;;;10.93;8.68;;;;;;;;;;5093946;28;20203;-60
2021/01/06 12:08:02;;;;;;;9.35;8.00;;;;;;;;;;5093117;28;20208;-57
2021/01/06 12:10:31;;;;;;;11.82;9.70;;;;;;;;;;5093272;28;20904;-58
2021/01/06 12:13:14;;;;;;;11.73;9.15;;;;;;;;;;5093794;28;20714;-58
2021/01/06 12:15:51;;;;;;;8.20;7.05;;;;;;;;;;5095015;28;20191;-59
2021/01/06 12:18:27;;;;;;;10.65;7.57;;;;;;;;;;5094194;28;20192;-59
2021/01/06 12:20:56;;;;;;;9.07;7.53;;;;;;;;;;5094149;28;20679;-59
2021/01/06 12:23:45;;;;;;;11.48;7.68;;;;;;;;;;5093803;28;20425;-59
2021/01/06 12:26:38;;;;;;;8.52;7.30;;;;;;;;;;5095958;28;20218;-59
2021/01/06 12:29:06;;;;;;;9.38;6.68;;;;;;;;;;5071091;28;20196;-59
2021/01/06 12:31:41;;;;;;;8.35;6.93;;;;;;;;;;5104531;28;20204;-58
2021/01/06 12:34:11;;;;;;;8.55;6.88;;;;;;;;;;5104397;28;20191;-58
2021/01/06 12:36:59;;;;;;;8.95;7.20;;;;;;;;;;5104964;28;20184;-59
2021/01/06 12:39:28;;;;;;;9.10;6.85;;;;;;;;;;5106014;28;20185;-59
2021/01/06 12:41:57;;;;;;;9.80;8.30;;;;;;;;;;5110603;28;20765;-58
2021/01/06 12:44:26;;;;;;;7.90;6.57;;;;;;;;;;5113508;28;20200;-58
2021/01/06 12:46:55;;;;;;;8.40;6.50;;;;;;;;;;5108750;28;20220;-59
2021/01/06 12:49:36;;;;;;;8.32;5.97;;;;;;;;;;5105323;28;20277;-59
2021/01/06 12:52:17;;;;;;;8.02;6.60;;;;;;;;;;5105948;28;20590;-58
2021/01/06 12:54:47;;;;;;;9.57;7.18;;;;;;;;;;5102826;28;20205;-59
2021/01/06 12:57:19;;;;;;;8.60;6.95;;;;;;;;;;5105472;28;20193;-58
2021/01/06 12:59:49;;;;;;;8.02;6.15;;;;;;;;;;5102509;28;20306;-57
2021/01/06 13:02:23;;;;;;;5.75;4.60;;;;;;;;;;5098791;28;20220;-59
2021/01/06 13:04:51;;;;;;;6.65;5.95;;;;;;;;;;5098631;28;20187;-58
2021/01/06 13:07:21;;;;;;;9.80;6.18;;;;;;;;;;5097217;28;20696;-58
2021/01/06 13:09:56;;;;;;;6.85;5.68;;;;;;;;;;5097100;28;20227;-58
2021/01/06 13:12:26;;;;;;;8.55;6.68;;;;;;;;;;5096556;28;20711;-59
2021/01/06 13:15:00;;;;;;;7.53;6.10;;;;;;;;;;5097584;28;20208;-59
2021/01/06 13:17:29;;;;;;;9.23;6.95;;;;;;;;;;5096545;28;20185;-59
2021/01/06 13:20:23;;;;;;;7.63;5.78;;;;;;;;;;5096577;28;20208;-59
2021/01/06 13:22:58;;;;;;;6.30;5.30;;;;;;;;;;5096246;28;20227;-58
2021/01/06 13:25:37;;;;;;;8.38;6.47;;;;;;;;;;5096704;28;20214;-59
2021/01/06 13:28:22;;;;;;;8.02;6.20;;;;;;;;;;5096659;28;20663;-59
2021/01/06 13:30:50;;;;;;;6.70;5.65;;;;;;;;;;5096878;28;20641;-59
2021/01/06 13:33:24;;;;;;;8.00;7.20;;;;;;;;;;5098016;28;20224;-58
2021/01/06 13:36:10;;;;;;;7.47;5.38;;;;;;;;;;5098915;28;20189;-59
2021/01/06 13:38:39;;;;;;;8.05;5.53;;;;;;;;;;5097708;28;20184;-59
2021/01/06 13:41:16;;;;;;;9.27;6.43;;;;;;;;;;5096778;28;20227;-59
2021/01/06 13:43:49;;;;;;;7.07;5.95;;;;;;;;;;5096304;28;20773;-59
2021/01/06 13:46:24;;;;;;;7.38;5.82;;;;;;;;;;5099912;28;20665;-59
2021/01/06 13:49:00;;;;;;;9.70;7.70;;;;;;;;;;5099712;28;20550;-59
2021/01/06 13:51:28;;;;;;;8.55;6.85;;;;;;;;;;5097137;28;20188;-59
2021/01/06 13:54:00;;;;;;;7.88;6.88;;;;;;;;;;5096752;28;20582;-59
2021/01/06 13:56:36;;;;;;;7.25;6.00;;;;;;;;;;5096658;28;20204;-59
2021/01/06 13:59:15;;;;;;;8.25;6.72;;;;;;;;;;5096106;28;20263;-59
2021/01/06 14:01:44;;;;;;;9.70;6.93;;;;;;;;;;5096344;28;20180;-59
2021/01/06 14:04:13;;;;;;;7.55;6.50;;;;;;;;;;5095820;28;20636;-58
2021/01/06 14:06:49;;;;;;;7.30;5.68;;;;;;;;;;5095950;28;20284;-59
2021/01/06 14:09:23;;;;;;;6.38;5.30;;;;;;;;;;5095948;28;20234;-58
2021/01/06 14:11:58;;;;;;;11.38;4.57;;;;;;;;;;5097259;28;20280;-58
2021/01/06 14:14:37;;;;;;;5.15;4.30;;;;;;;;;;5096410;28;20188;-59
2021/01/06 14:17:14;;;;;;;7.57;5.40;;;;;;;;;;5095978;28;20181;-59
2021/01/06 14:19:54;;;;;;;7.40;5.57;;;;;;;;;;5096718;28;20279;-59
2021/01/06 14:22:29;;;;;;;6.97;5.15;;;;;;;;;;5095553;28;20220;-57
2021/01/06 14:24:56;;;;;;;5.28;4.22;;;;;;;;;;5095600;28;20194;-58
2021/01/06 14:27:32;;;;;;;8.02;5.97;;;;;;;;;;5096067;28;20227;-59
2021/01/06 14:30:06;;;;;;;5.90;4.72;;;;;;;;;;5096022;28;20184;-59
2021/01/06 14:32:36;;;;;;;6.65;4.72;;;;;;;;;;5095877;28;20220;-58
2021/01/06 14:35:08;;;;;;;8.02;5.90;;;;;;;;;;5097881;28;20211;-59
2021/01/06 14:37:55;;;;;;;6.15;4.72;;;;;;;;;;5115034;28;20185;-61
2021/01/06 14:40:27;;;;;;;6.45;5.68;;;;;;;;;;5115685;28;20215;-59
2021/01/06 14:43:02;;;;;;;8.55;5.90;;;;;;;;;;5110638;28;20228;-60
2021/01/06 14:45:33;;;;;;;6.05;4.43;;;;;;;;;;5100026;28;20195;-59
2021/01/06 14:48:06;;;;;;;5.20;4.65;;;;;;;;;;5096880;28;20204;-59
2021/01/06 14:50:36;;;;;;;5.63;4.10;;;;;;;;;;5095486;28;20234;-58
2021/01/06 14:53:07;;;;;;;6.30;5.60;;;;;;;;;;5095926;28;20255;-59
2021/01/06 14:55:36;;;;;;;4.85;4.35;;;;;;;;;;5096550;28;20192;-58
2021/01/06 14:58:07;;;;;;;6.00;5.20;;;;;;;;;;5095839;28;20197;-58
2021/01/06 15:00:37;;;;;;;5.75;5.05;;;;;;;;;;5095611;28;20185;-58
2021/01/06 15:03:08;;;;;;;5.60;4.43;;;;;;;;;;5095630;28;20589;-58
2021/01/06 15:05:37;;;;;;;4.82;4.38;;;;;;;;;;5097438;28;20215;-60
2021/01/06 15:08:07;;;;;;;6.05;5.30;;;;;;;;;;5097049;28;20204;-60